Sibi Weather



Sibi's Current Weather

Temprature 42.862o clear sky

clear sky

Rain: 0 %

Min Temprature42.862o
Max Temprature42.862o
Humidity12
Wind Speed6.25 m/h
Sun Rise05:30:05
Sun Set19:32:09
Current Time: 26-Jun-2019 15:15:54
Lat/Lon: 29.55, 67.88




Sibi's Geo Location



Sibi's Weather Forecast

Time Overall Temp Min Temp Max Temp Humidity Wind Speed Rain
26-Jun-2019 (Wed)
17:00:00 clear sky 43.250 43.250 43.250 10 5.14 m/h 0 %
20:00:00 clear sky 40.450 40.447 40.450 12 5.05 m/h 0 %
23:00:00 clear sky 38.340 38.340 38.340 14 3.96 m/h 0 %
27-Jun-2019 (Thu)
02:00:00 clear sky 35.080 35.079 35.080 19 1.13 m/h 0 %
05:00:00 clear sky 32.765 32.765 32.765 26 1.85 m/h 0 %
08:00:00 clear sky 36.250 36.250 36.250 21 0.92 m/h 0 %
11:00:00 clear sky 39.374 39.374 39.374 21 3.28 m/h 0 %
14:00:00 clear sky 42.250 42.250 42.250 16 4.03 m/h 0 %
17:00:00 clear sky 43.480 43.480 43.480 11 5.49 m/h 0 %
20:00:00 clear sky 40.594 40.594 40.594 11 2.84 m/h 0 %
23:00:00 clear sky 37.935 37.935 37.935 15 1.5 m/h 0 %
28-Jun-2019 (Fri)
02:00:00 clear sky 35.028 35.028 35.028 19 2.3 m/h 0 %
05:00:00 clear sky 31.028 31.028 31.028 44 0.98 m/h 0 %
08:00:00 clear sky 32.169 32.169 32.169 44 1.71 m/h 0 %
11:00:00 clear sky 36.825 36.825 36.825 30 2.03 m/h 0 %
14:00:00 clear sky 40.931 40.931 40.931 19 3.25 m/h 0 %
17:00:00 clear sky 43.050 43.050 43.050 13 5.28 m/h 0 %
20:00:00 clear sky 39.950 39.950 39.950 16 2.54 m/h 0 %
23:00:00 clear sky 37.672 37.672 37.672 18 1.41 m/h 0 %
29-Jun-2019 (Sat)
02:00:00 clear sky 34.972 34.972 34.972 25 1.61 m/h 0 %
05:00:00 clear sky 31.769 31.769 31.769 46 0.54 m/h 0 %
08:00:00 clear sky 34.147 34.147 34.147 38 0.81 m/h 0 %
11:00:00 clear sky 37.550 37.550 37.550 31 2.79 m/h 0 %
14:00:00 clear sky 41.350 41.350 41.350 20 3.64 m/h 0 %
17:00:00 clear sky 43.391 43.391 43.391 13 5.2 m/h 0 %
20:00:00 clear sky 40.450 40.450 40.450 15 2.16 m/h 0 %
23:00:00 clear sky 37.950 37.950 37.950 18 1.51 m/h 0 %
30-Jun-2019 (Sun)
02:00:00 clear sky 34.996 34.996 34.996 22 0.73 m/h 0 %
05:00:00 clear sky 31.562 31.562 31.562 46 1.35 m/h 0 %
08:00:00 clear sky 33.382 33.382 33.382 42 0.39 m/h 0 %
11:00:00 clear sky 37.818 37.818 37.818 31 3.26 m/h 0 %
14:00:00 clear sky 40.909 40.909 40.909 22 3.28 m/h 0 %
17:00:00 clear sky 42.550 42.550 42.550 16 3.65 m/h 0 %
20:00:00 clear sky 40.450 40.450 40.450 17 2.31 m/h 0 %
23:00:00 clear sky 37.950 37.950 37.950 21 0.99 m/h 0 %
01-Jul-2019 (Mon)
02:00:00 clear sky 35.850 35.850 35.850 29 2.5 m/h 0 %
05:00:00 clear sky 33.235 33.235 33.235 44 1.87 m/h 0 %
08:00:00 clear sky 33.050 33.050 33.050 47 3.14 m/h 0 %
11:00:00 clear sky 35.650 35.650 35.650 40 2.34 m/h 0 %
14:00:00 clear sky 40.450 40.450 40.450 26 3.42 m/h 0 %

Famous Cities (60)